Time;durP1;ratioP1;P1;durP2;ratioP2;P2;SDS_P1;SDS_P2;PMS_P1;PMS_P2;Temp;Humidity;BMP_temperature;BMP_pressure;BME280_temperature;BME280_humidity;BME280_pressure;Samples;Min_cycle;Max_cycle;Signal;HPM_P1;HPM_P2
2024/04/12 00:01:16;;;;;;;;;;;;;;;18.25;47.42;101303.72;11098833;26;1842;-71
2024/04/12 00:06:15;;;;;;;;;;;;;;;18.24;47.55;101299.34;11099832;26;883;-70
2024/04/12 00:11:11;;;;;;;;;;;;;;;18.23;47.30;101300.22;11099651;26;827;-70
2024/04/12 00:16:08;;;;;;;;;;;;;;;18.22;46.93;101304.66;11098783;26;1030;-71
2024/04/12 00:21:05;;;;;;;;;;;;;;;18.20;47.39;101289.75;11099165;26;1873;-70
2024/04/12 00:26:01;;;;;;;;;;;;;;;18.19;47.07;101280.97;11098493;26;824;-70
2024/04/12 00:30:59;;;;;;;;;;;;;;;18.20;47.22;101268.63;11098224;26;881;-70
2024/04/12 00:35:56;;;;;;;;;;;;;;;18.17;47.61;101275.69;11098040;26;993;-70
2024/04/12 00:40:52;;;;;;;;;;;;;;;18.17;47.49;101278.34;11097870;26;1829;-70
2024/04/12 00:45:49;;;;;;;;;;;;;;;18.16;47.59;101278.38;11098373;26;1027;-70
2024/04/12 00:50:46;;;;;;;;;;;;;;;18.14;47.01;101274.91;11097518;26;924;-71
2024/04/12 00:55:42;;;;;;;;;;;;;;;18.14;47.10;101269.63;11097416;26;872;-70
2024/04/12 01:00:46;;;;;;;;;;;;;;;18.13;47.46;101258.22;11103054;26;1850;-70
2024/04/12 01:05:42;;;;;;;;;;;;;;;18.12;47.38;101269.66;11104146;26;887;-70
2024/04/12 01:10:38;;;;;;;;;;;;;;;18.12;47.46;101266.16;11104560;26;843;-71
2024/04/12 01:15:37;;;;;;;;;;;;;;;18.12;47.40;101260.88;11104408;26;875;-71
2024/04/12 01:20:34;;;;;;;;;;;;;;;18.10;47.61;101242.44;11104166;26;1828;-70
2024/04/12 01:25:31;;;;;;;;;;;;;;;18.09;47.35;101255.66;11104225;26;911;-71
2024/04/12 01:30:30;;;;;;;;;;;;;;;18.09;47.16;101255.66;11104016;26;1343;-70
2024/04/12 01:35:26;;;;;;;;;;;;;;;18.07;47.64;101245.13;11103216;26;1179;-70
2024/04/12 01:40:25;;;;;;;;;;;;;;;18.06;47.19;101235.47;11103254;26;1860;-70
2024/04/12 01:45:26;;;;;;;;;;;;;;;18.05;47.44;101236.41;11102964;26;851;-70
2024/04/12 01:50:22;;;;;;;;;;;;;;;18.05;47.39;101239.03;11102952;26;1002;-70
2024/04/12 01:55:19;;;;;;;;;;;;;;;18.05;47.77;101235.50;11102584;26;847;-70
2024/04/12 02:00:20;;;;;;;;;;;;;;;18.02;47.86;101225.88;11102683;26;1855;-70
2024/04/12 02:05:16;;;;;;;;;;;;;;;18.01;47.89;101221.50;11103018;26;872;-71
2024/04/12 02:10:12;;;;;;;;;;;;;;;18.02;47.51;101220.59;11102885;26;887;-70
2024/04/12 02:15:20;;;;;;;;;;;;;;;18.01;47.44;101215.38;11102678;26;982;-71
2024/04/12 02:20:19;;;;;;;;;;;;;;;18.01;47.37;101218.00;11102476;26;1829;-71
2024/04/12 02:25:17;;;;;;;;;;;;;;;17.99;47.49;101212.75;11103131;26;1068;-70
2024/04/12 02:30:12;;;;;;;;;;;;;;;17.98;47.60;101218.94;11103076;26;857;-71
2024/04/12 02:35:08;;;;;;;;;;;;;;;17.98;47.49;101216.31;11102138;26;898;-70
2024/04/12 02:40:06;;;;;;;;;;;;;;;17.96;47.76;101208.41;11102549;26;1821;-70
2024/04/12 02:45:05;;;;;;;;;;;;;;;17.95;47.47;101204.03;11101883;26;868;-71
2024/04/12 02:50:01;;;;;;;;;;;;;;;17.95;47.70;101193.50;11102399;26;873;-70
2024/04/12 02:54:56;;;;;;;;;;;;;;;17.95;47.74;101190.84;11102203;26;1041;-71
2024/04/12 02:59:53;;;;;;;;;;;;;;;17.93;47.42;101189.16;11101260;26;1821;-71
2024/04/12 03:04:48;;;;;;;;;;;;;;;17.93;47.51;101181.22;11101353;26;883;-71
2024/04/12 03:09:44;;;;;;;;;;;;;;;17.93;47.73;101178.59;11101757;26;902;-70
2024/04/12 03:14:41;;;;;;;;;;;;;;;17.91;47.32;101183.88;11100921;26;1212;-70
2024/04/12 03:19:37;;;;;;;;;;;;;;;17.90;47.74;101178.66;11100053;26;1852;-70
2024/04/12 03:24:34;;;;;;;;;;;;;;;17.90;47.45;101174.25;11101427;26;794;-70
2024/04/12 03:29:30;;;;;;;;;;;;;;;17.90;47.26;101181.31;11100516;26;921;-71
2024/04/12 03:34:27;;;;;;;;;;;;;;;17.88;47.52;101194.50;11101019;26;864;-71
2024/04/12 03:44:19;;;;;;;;;;;;;;;17.87;47.18;101192.78;11100662;26;938;-70
2024/04/12 03:49:15;;;;;;;;;;;;;;;17.87;47.11;101199.84;11100397;26;935;-70
2024/04/12 03:54:11;;;;;;;;;;;;;;;17.86;47.36;101192.81;11100281;26;1000;-71
2024/04/12 03:59:07;;;;;;;;;;;;;;;17.85;47.79;101191.94;11099441;26;1847;-70
2024/04/12 04:04:10;;;;;;;;;;;;;;;17.85;47.40;101194.56;11099986;26;1195;-71
2024/04/12 04:09:05;;;;;;;;;;;;;;;17.86;47.14;101198.06;11099146;26;896;-71
2024/04/12 04:14:08;;;;;;;;;;;;;;;17.87;47.60;101194.56;11098972;26;902;-70
2024/04/12 04:19:04;;;;;;;;;;;;;;;17.88;47.74;101188.38;11098713;26;1833;-70
2024/04/12 04:24:08;;;;;;;;;;;;;;;17.89;47.69;101192.75;11099208;26;911;-70
2024/04/12 04:29:09;;;;;;;;;;;;;;;17.90;47.37;101183.94;11099476;26;899;-71
2024/04/12 04:34:05;;;;;;;;;;;;;;;17.91;47.72;101185.66;11102234;26;821;-70
2024/04/12 04:39:01;;;;;;;;;;;;;;;17.93;47.63;101192.66;11105431;26;1839;-71
2024/04/12 04:43:57;;;;;;;;;;;;;;;17.95;47.70;101180.31;11105375;26;931;-70
2024/04/12 04:48:52;;;;;;;;;;;;;;;17.98;47.77;101187.28;11105238;26;888;-71
2024/04/12 04:53:52;;;;;;;;;;;;;;;18.01;47.47;101181.06;11105134;26;814;-70
2024/04/12 04:58:48;;;;;;;;;;;;;;;18.03;47.53;101195.97;11104965;26;1312;-70
2024/04/12 05:03:49;;;;;;;;;;;;;;;18.04;47.83;101200.34;11104282;26;1856;-71
2024/04/12 05:08:45;;;;;;;;;;;;;;;18.07;47.69;101196.75;11104073;26;880;-71
2024/04/12 05:13:41;;;;;;;;;;;;;;;18.09;47.85;101203.75;11104543;26;912;-71
2024/04/12 05:18:37;;;;;;;;;;;;;;;18.11;47.77;101196.66;11104360;26;987;-71
2024/04/12 05:23:33;;;;;;;;;;;;;;;18.14;47.86;101199.25;11104168;26;1863;-71
2024/04/12 05:28:30;;;;;;;;;;;;;;;18.15;47.62;101208.88;11103492;26;825;-71
2024/04/12 05:33:29;;;;;;;;;;;;;;;18.16;47.82;101205.34;11103232;26;883;-71
2024/04/12 05:38:26;;;;;;;;;;;;;;;18.18;47.69;101197.38;11103125;26;1004;-71
2024/04/12 05:43:22;;;;;;;;;;;;;;;18.20;47.80;101200.00;11103205;26;1857;-71
2024/04/12 05:48:21;;;;;;;;;;;;;;;18.22;47.82;101188.50;11102857;26;868;-71
2024/04/12 05:53:17;;;;;;;;;;;;;;;18.23;47.92;101184.09;11102718;26;883;-74
2024/04/12 05:58:13;;;;;;;;;;;;;;;18.24;47.73;101183.22;11102399;26;917;-71
2024/04/12 06:03:13;;;;;;;;;;;;;;;18.25;47.80;101199.00;11103186;26;1830;-70
2024/04/12 06:08:12;;;;;;;;;;;;;;;18.27;47.92;101186.66;11102977;26;1032;-71
2024/04/12 06:13:08;;;;;;;;;;;;;;;18.28;47.67;101193.66;11103474;26;871;-71
2024/04/12 06:18:05;;;;;;;;;;;;;;;18.28;47.86;101183.09;11102656;26;881;-71
2024/04/12 06:23:09;;;;;;;;;;;;;;;18.30;47.70;101188.34;11102507;26;1833;-71
2024/04/12 06:28:11;;;;;;;;;;;;;;;18.30;47.88;101186.56;11103025;26;1147;-72
2024/04/12 06:33:07;;;;;;;;;;;;;;;18.31;47.88;101190.06;11103199;26;792;-73
2024/04/12 06:38:08;;;;;;;;;;;;;;;18.30;47.97;101201.53;11102638;26;909;-72
2024/04/12 06:43:07;;;;;;;;;;;;;;;18.30;47.58;101191.00;11101821;26;1861;-71
2024/04/12 06:48:03;;;;;;;;;;;;;;;18.30;47.69;101198.91;11101786;26;944;-71
2024/04/12 06:52:59;;;;;;;;;;;;;;;18.30;48.30;101196.28;11101783;26;836;-71
2024/04/12 06:57:55;;;;;;;;;;;;;;;18.29;48.32;101205.09;11100390;26;910;-71
2024/04/12 07:02:52;;;;;;;;;;;;;;;18.29;47.78;101202.47;11100581;26;1853;-71
2024/04/12 07:07:48;;;;;;;;;;;;;;;18.30;48.06;101204.19;11100874;26;1000;-73
2024/04/12 07:12:44;;;;;;;;;;;;;;;18.31;47.84;101213.81;11101093;26;831;-71
2024/04/12 07:17:40;;;;;;;;;;;;;;;18.32;48.31;101215.59;11100881;26;920;-71
2024/04/12 07:22:36;;;;;;;;;;;;;;;18.32;47.95;101215.59;11100053;26;1825;-70
2024/04/12 07:27:33;;;;;;;;;;;;;;;18.33;47.63;101209.38;11100574;26;1170;-71
2024/04/12 07:32:35;;;;;;;;;;;;;;;18.34;47.92;101213.78;11099824;26;869;-71
2024/04/12 07:37:36;;;;;;;;;;;;;;;18.35;48.12;101220.78;11099700;26;996;-71
2024/04/12 07:42:36;;;;;;;;;;;;;;;18.36;48.02;101211.97;11099397;26;1814;-71
2024/04/12 07:47:35;;;;;;;;;;;;;;;18.37;48.12;101233.06;11100170;26;1032;-71
2024/04/12 07:52:34;;;;;;;;;;;;;;;18.37;47.90;101240.97;11099802;26;921;-71
2024/04/12 07:57:30;;;;;;;;;;;;;;;18.39;48.05;101233.00;11098931;26;855;-71
2024/04/12 08:02:30;;;;;;;;;;;;;;;18.39;48.01;101223.34;11099303;26;1826;-71
2024/04/12 08:07:30;;;;;;;;;;;;;;;18.39;48.21;101222.44;11102785;26;848;-71
2024/04/12 08:12:31;;;;;;;;;;;;;;;18.41;48.15;101225.94;11106349;26;952;-71
2024/04/12 08:17:27;;;;;;;;;;;;;;;18.42;48.10;101243.53;11106218;26;869;-71
2024/04/12 08:22:25;;;;;;;;;;;;;;;18.43;47.93;101239.97;11106009;26;1830;-70
2024/04/12 08:27:24;;;;;;;;;;;;;;;18.44;48.20;101236.41;11105974;26;875;-71
2024/04/12 08:32:27;;;;;;;;;;;;;;;18.45;47.80;101239.94;11105790;26;910;-71
2024/04/12 08:37:30;;;;;;;;;;;;;;;18.46;48.06;101233.75;11106474;26;1016;-72
2024/04/12 08:42:29;;;;;;;;;;;;;;;18.47;47.82;101230.19;11106338;26;1829;-72
2024/04/12 08:52:30;;;;;;;;;;;;;;;18.50;48.39;101225.72;11105820;26;938;-72
2024/04/12 08:57:26;;;;;;;;;;;;;;;18.51;48.45;101219.53;11105050;26;925;-72
2024/04/12 09:02:26;;;;;;;;;;;;;;;18.53;48.11;101211.59;11104528;26;1818;-71
2024/04/12 09:07:23;;;;;;;;;;;;;;;18.56;47.91;101214.16;11104740;26;896;-71
2024/04/12 09:12:22;;;;;;;;;;;;;;;18.57;48.20;101206.19;11104614;26;945;-71
2024/04/12 09:17:24;;;;;;;;;;;;;;;18.58;48.10;101213.22;11103963;26;926;-72
2024/04/12 09:22:21;;;;;;;;;;;;;;;18.59;48.19;101216.72;11104126;26;1829;-71
2024/04/12 09:27:22;;;;;;;;;;;;;;;18.59;48.18;101217.59;11104208;26;878;-72
2024/04/12 09:37:38;;;;;;;;;;;;;;;18.62;47.94;101209.59;11104555;26;633;-72
2024/04/12 10:40:33;;;;;;;;;;;;;;;18.72;48.60;101197.03;11102737;26;1760;-71
2024/04/12 10:45:29;;;;;;;;;;;;;;;18.73;48.66;101195.25;11101315;26;916;-73
2024/04/12 10:50:27;;;;;;;;;;;;;;;18.74;48.57;101194.38;11101170;26;930;-71
2024/04/12 10:55:23;;;;;;;;;;;;;;;18.74;48.53;101194.38;11101689;26;872;-71
2024/04/12 11:00:28;;;;;;;;;;;;;;;18.75;48.41;101191.72;11101000;26;1821;-71
2024/04/12 11:10:54;;;;;;;;;;;;;;;18.75;48.52;101193.50;11101836;26;863;-71
2024/04/12 11:31:15;;;;;;;;;;;;;;;18.74;48.57;101176.75;11101152;26;613;-70
2024/04/12 11:36:14;;;;;;;;;;;;;;;18.74;48.55;101171.47;11101087;26;926;-69
2024/04/12 11:41:15;;;;;;;;;;;;;;;18.74;48.98;101162.69;11099560;26;1818;-69
2024/04/12 11:46:14;;;;;;;;;;;;;;;18.75;49.10;101148.59;11100896;26;1003;-69
2024/04/12 11:51:10;;;;;;;;;;;;;;;18.77;48.92;101136.22;11099816;26;981;-69
2024/04/12 11:56:09;;;;;;;;;;;;;;;18.78;49.05;101132.66;11099669;26;863;-71
2024/04/12 12:01:05;;;;;;;;;;;;;;;18.80;49.03;101133.50;11099461;26;1826;-75
2024/04/12 12:06:06;;;;;;;;;;;;;;;18.82;48.89;101129.03;11098774;26;995;-72
2024/04/12 12:11:05;;;;;;;;;;;;;;;18.85;48.89;101118.38;11099243;26;847;-72
2024/04/12 12:16:03;;;;;;;;;;;;;;;18.87;49.03;101116.59;11098418;26;1050;-71
2024/04/12 12:20:59;;;;;;;;;;;;;;;18.88;48.84;101115.66;11098072;26;1840;-72
2024/04/12 12:25:56;;;;;;;;;;;;;;;18.88;48.94;101106.88;11098712;26;809;-72
2024/04/12 12:30:54;;;;;;;;;;;;;;;18.89;49.04;101104.22;11097892;26;1019;-71
2024/04/12 12:35:50;;;;;;;;;;;;;;;18.87;48.85;101108.66;11097728;26;915;-71
2024/04/12 12:40:46;;;;;;;;;;;;;;;18.86;49.27;101108.69;11098108;26;1833;-70
2024/04/12 12:45:42;;;;;;;;;;;;;;;18.84;49.39;101108.75;11097834;26;760;-71
2024/04/12 12:50:38;;;;;;;;;;;;;;;18.84;49.38;101095.53;11097712;26;1032;-69
2024/04/12 12:55:34;;;;;;;;;;;;;;;18.83;49.35;101097.28;11101478;26;882;-77
2024/04/12 13:00:36;;;;;;;;;;;;;;;18.86;49.57;101098.13;11104384;26;1852;-71
2024/04/12 13:05:32;;;;;;;;;;;;;;;18.86;49.26;101098.97;11105232;26;913;-72
2024/04/12 13:10:33;;;;;;;;;;;;;;;18.88;49.19;101099.81;11104175;26;1133;-71
2024/04/12 13:15:29;;;;;;;;;;;;;;;18.89;49.11;101095.38;11104107;26;876;-71
2024/04/12 13:20:25;;;;;;;;;;;;;;;18.90;49.14;101094.50;11104402;26;1854;-71
2024/04/12 13:25:21;;;;;;;;;;;;;;;18.88;49.45;101093.66;11103753;26;890;-71
2024/04/12 13:30:17;;;;;;;;;;;;;;;18.88;49.22;101091.03;11104270;26;796;-71
2024/04/12 13:35:13;;;;;;;;;;;;;;;18.85;49.13;101085.81;11104132;26;913;-71
2024/04/12 13:40:15;;;;;;;;;;;;;;;18.84;49.55;101082.31;11103259;26;1847;-71
2024/04/12 13:55:43;;;;;;;;;;;;;;;18.83;49.18;101060.28;11103085;26;606;-71
2024/04/12 14:00:48;;;;;;;;;;;;;;;18.82;49.00;101058.56;11102361;26;1848;-72
2024/04/12 14:05:46;;;;;;;;;;;;;;;18.84;49.42;101058.53;11102431;26;1214;-71
2024/04/12 14:10:42;;;;;;;;;;;;;;;18.85;49.47;101049.69;11102560;26;978;-71
2024/04/12 14:15:37;;;;;;;;;;;;;;;18.93;49.36;101042.44;11102291;26;951;-69
2024/04/12 14:20:33;;;;;;;;;;;;;;;18.97;49.70;101041.44;11102066;26;1837;-71
2024/04/12 14:25:29;;;;;;;;;;;;;;;18.94;49.63;101036.25;11102019;26;885;-71
2024/04/12 14:30:25;;;;;;;;;;;;;;;18.91;50.05;101032.81;11101882;26;937;-71
2024/04/12 14:35:22;;;;;;;;;;;;;;;18.88;49.82;101031.13;11101833;26;961;-74
2024/04/12 14:40:21;;;;;;;;;;;;;;;18.86;50.14;101024.16;11101594;26;1918;-74
2024/04/12 14:45:18;;;;;;;;;;;;;;;18.84;50.26;101029.50;11101415;26;928;-71
2024/04/12 14:50:14;;;;;;;;;;;;;;;18.85;50.23;101015.34;11101369;26;924;-74
2024/04/12 14:55:12;;;;;;;;;;;;;;;18.85;50.09;101010.06;11101889;26;896;-71
2024/04/12 15:00:07;;;;;;;;;;;;;;;18.88;50.10;101009.13;11100634;26;1829;-72
2024/04/12 15:52:04;;;;;;;;;;;;;;;19.05;50.02;100951.41;11099399;26;932;-72
2024/04/12 16:13:03;;;;;;;;;;;;;;;19.04;49.88;100941.72;11064996;26;1407;-73
2024/04/12 16:17:59;;;;;;;;;;;;;;;19.04;49.74;100931.16;11098494;26;948;-73
2024/04/12 16:22:55;;;;;;;;;;;;;;;19.03;49.97;100922.34;11098876;26;1833;-71
2024/04/12 16:27:51;;;;;;;;;;;;;;;19.04;50.17;100920.56;11100120;26;927;-72
2024/04/12 16:32:46;;;;;;;;;;;;;;;19.06;50.07;100926.69;11106002;26;875;-71
2024/04/12 16:37:42;;;;;;;;;;;;;;;19.05;50.03;100920.53;11105146;26;814;-71
2024/04/12 16:42:38;;;;;;;;;;;;;;;19.06;49.82;100918.75;11104922;26;1833;-72
2024/04/12 16:47:34;;;;;;;;;;;;;;;19.04;50.21;100915.28;11104897;26;970;-72
2024/04/12 16:52:30;;;;;;;;;;;;;;;19.05;50.37;100924.97;11104724;26;1058;-71
2024/04/12 16:57:26;;;;;;;;;;;;;;;19.05;50.09;100917.91;11104620;26;852;-72
2024/04/12 17:02:22;;;;;;;;;;;;;;;19.04;50.21;100918.78;11103763;26;1844;-72
2024/04/12 17:07:18;;;;;;;;;;;;;;;19.05;50.06;100915.25;11103735;26;855;-72
2024/04/12 17:12:14;;;;;;;;;;;;;;;19.05;50.15;100917.91;11103570;26;1057;-72
2024/04/12 17:17:09;;;;;;;;;;;;;;;19.04;50.15;100908.22;11162814;26;831;-72
2024/04/12 17:22:05;;;;;;;;;;;;;;;19.04;50.27;100902.94;11103845;26;1829;-71
2024/04/12 17:27:01;;;;;;;;;;;;;;;19.03;50.08;100898.56;11103672;26;860;-72
2024/04/12 17:31:58;;;;;;;;;;;;;;;19.03;50.18;100898.56;11103624;26;903;-72
2024/04/12 17:36:54;;;;;;;;;;;;;;;19.04;50.36;100900.28;11102850;26;852;-72
2024/04/12 17:41:50;;;;;;;;;;;;;;;19.04;50.44;100892.38;11102581;26;1840;-71
2024/04/12 17:46:46;;;;;;;;;;;;;;;19.03;50.17;100887.16;11102579;26;1008;-72
2024/04/12 17:51:42;;;;;;;;;;;;;;;19.02;50.30;100898.59;11102423;26;1025;-72
2024/04/12 17:56:38;;;;;;;;;;;;;;;19.02;50.25;100895.97;11102962;26;847;-73
2024/04/12 18:01:34;;;;;;;;;;;;;;;19.03;50.21;100893.28;11102152;26;1822;-72
2024/04/12 18:06:30;;;;;;;;;;;;;;;19.03;50.19;100900.34;11102671;26;882;-72
2024/04/12 18:11:27;;;;;;;;;;;;;;;19.02;50.14;100891.56;11102472;26;1193;-72
2024/04/12 18:16:22;;;;;;;;;;;;;;;19.02;50.11;100886.28;11102475;26;863;-72
2024/04/12 18:21:18;;;;;;;;;;;;;;;19.01;50.13;100876.63;11102130;26;1843;-72
2024/04/12 18:26:14;;;;;;;;;;;;;;;19.02;50.01;100870.44;11102647;26;948;-72
2024/04/12 18:31:12;;;;;;;;;;;;;;;19.03;50.14;100881.88;11102730;26;841;-72
2024/04/12 18:36:20;;;;;;;;;;;;;;;19.02;50.49;100878.38;11101718;26;840;-72
2024/04/12 18:46:31;;;;;;;;;;;;;;;19.02;50.39;100891.56;11101892;26;630;-71
2024/04/12 18:51:27;;;;;;;;;;;;;;;19.02;50.37;100896.84;11100576;26;821;-71
2024/04/12 18:56:24;;;;;;;;;;;;;;;19.04;50.59;100902.06;11101885;26;724;-71
2024/04/12 19:01:23;;;;;;;;;;;;;;;19.03;50.33;100897.72;11101171;26;1822;-71
2024/04/12 19:06:19;;;;;;;;;;;;;;;19.04;50.16;100899.44;11101615;26;836;-71
2024/04/12 19:11:15;;;;;;;;;;;;;;;19.03;50.31;100890.66;11101360;26;903;-71
2024/04/12 19:16:12;;;;;;;;;;;;;;;19.02;50.22;100886.28;11101300;26;822;-71
2024/04/12 19:21:11;;;;;;;;;;;;;;;19.03;50.49;100893.28;11101083;26;1830;-72
2024/04/12 19:26:07;;;;;;;;;;;;;;;19.03;50.28;100888.00;11100322;26;916;-72
2024/04/12 19:31:03;;;;;;;;;;;;;;;19.04;50.07;100894.16;11100828;26;895;-71
2024/04/12 19:35:58;;;;;;;;;;;;;;;19.04;49.93;100889.72;11100722;26;886;-73
2024/04/12 19:40:54;;;;;;;;;;;;;;;19.04;50.47;100895.00;11100135;26;1814;-72
2024/04/12 19:45:50;;;;;;;;;;;;;;;19.04;50.28;100889.72;11101015;26;993;-72
2024/04/12 19:50:46;;;;;;;;;;;;;;;19.03;50.03;100888.00;11100386;26;887;-72
2024/04/12 19:55:42;;;;;;;;;;;;;;;19.03;50.15;100887.16;11100000;26;912;-71
2024/04/12 20:00:41;;;;;;;;;;;;;;;19.02;50.28;100890.69;11099011;26;1818;-72
2024/04/12 20:05:37;;;;;;;;;;;;;;;19.01;50.06;100887.19;11098473;26;886;-73
2024/04/12 20:10:32;;;;;;;;;;;;;;;19.00;50.14;100877.53;11099096;26;1204;-73
2024/04/12 20:15:30;;;;;;;;;;;;;;;19.00;49.90;100877.53;11099169;26;805;-71
2024/04/12 20:20:26;;;;;;;;;;;;;;;18.99;50.13;100875.81;11098930;26;1825;-71
2024/04/12 20:25:25;;;;;;;;;;;;;;;18.99;50.07;100873.19;11099076;26;913;-71
2024/04/12 20:30:33;;;;;;;;;;;;;;;19.00;50.04;100874.03;11098670;26;933;-71
2024/04/12 20:35:32;;;;;;;;;;;;;;;18.99;50.24;100878.47;11098478;26;1034;-71
2024/04/12 20:40:28;;;;;;;;;;;;;;;18.98;49.93;100871.44;11098135;26;1834;-71
2024/04/12 20:45:24;;;;;;;;;;;;;;;18.98;50.00;100874.06;11098067;26;948;-71
2024/04/12 20:50:20;;;;;;;;;;;;;;;18.98;49.92;100866.16;11097913;26;825;-71
2024/04/12 20:55:16;;;;;;;;;;;;;;;18.98;50.24;100857.34;11098250;26;843;-71
2024/04/12 21:00:13;;;;;;;;;;;;;;;18.97;49.93;100859.13;11097386;26;1861;-71
2024/04/12 21:05:09;;;;;;;;;;;;;;;18.97;50.04;100861.78;11097959;26;902;-71
2024/04/12 21:10:05;;;;;;;;;;;;;;;18.96;50.20;100865.31;11097146;26;854;-71
2024/04/12 21:15:01;;;;;;;;;;;;;;;18.96;50.07;100862.66;11099993;26;922;-71
2024/04/12 21:19:57;;;;;;;;;;;;;;;18.95;49.78;100862.75;11105122;26;1829;-71
2024/04/12 21:24:53;;;;;;;;;;;;;;;18.94;49.86;100863.63;11104902;26;852;-70
2024/04/12 21:29:49;;;;;;;;;;;;;;;18.94;49.79;100855.72;11104904;26;805;-71
2024/04/12 21:34:45;;;;;;;;;;;;;;;18.92;49.84;100858.41;11104775;26;859;-71
2024/04/12 21:39:41;;;;;;;;;;;;;;;18.91;49.69;100851.38;11104514;26;1825;-71
2024/04/12 21:44:37;;;;;;;;;;;;;;;18.91;49.99;100855.81;11104514;26;822;-71
2024/04/12 21:49:36;;;;;;;;;;;;;;;18.89;50.10;100855.88;11103699;26;818;-71
2024/04/12 21:54:32;;;;;;;;;;;;;;;18.89;49.91;100854.97;11103612;26;899;-71
2024/04/12 21:59:28;;;;;;;;;;;;;;;18.88;49.92;100850.63;11102912;26;1825;-71
2024/04/12 22:04:27;;;;;;;;;;;;;;;18.86;49.95;100852.44;11104040;26;867;-71
2024/04/12 22:09:23;;;;;;;;;;;;;;;18.86;50.05;100849.78;11103107;26;915;-71
2024/04/12 22:14:19;;;;;;;;;;;;;;;18.84;49.63;100857.78;11102860;26;867;-71
2024/04/12 22:19:15;;;;;;;;;;;;;;;18.84;50.01;100863.06;11102699;26;1830;-71
2024/04/12 22:24:11;;;;;;;;;;;;;;;18.81;49.95;100858.75;11103334;26;915;-71
2024/04/12 22:29:07;;;;;;;;;;;;;;;18.82;49.89;100872.81;11102450;26;895;-71
2024/04/12 22:34:02;;;;;;;;;;;;;;;18.81;50.03;100868.41;11102389;26;981;-71
2024/04/12 22:38:58;;;;;;;;;;;;;;;18.79;49.89;100863.19;11102938;26;815;-71
2024/04/12 22:43:55;;;;;;;;;;;;;;;18.80;49.99;100872.84;11102658;26;1830;-70
2024/04/12 22:48:51;;;;;;;;;;;;;;;18.78;49.93;100860.59;11101954;26;937;-71
2024/04/12 22:53:47;;;;;;;;;;;;;;;18.77;50.24;100862.38;11101825;26;872;-71
2024/04/12 22:58:43;;;;;;;;;;;;;;;18.77;50.18;100867.66;11101947;26;878;-71
2024/04/12 23:03:39;;;;;;;;;;;;;;;18.77;50.31;100864.16;11101935;26;1830;-71
2024/04/12 23:08:34;;;;;;;;;;;;;;;18.75;50.37;100871.25;11101382;26;859;-71
2024/04/12 23:13:30;;;;;;;;;;;;;;;18.75;50.22;100865.97;11101863;26;885;-71
2024/04/12 23:18:26;;;;;;;;;;;;;;;18.74;50.14;100866.84;11101123;26;900;-71
2024/04/12 23:23:22;;;;;;;;;;;;;;;18.73;50.15;100859.81;11101137;26;1822;-71
2024/04/12 23:28:18;;;;;;;;;;;;;;;18.73;49.94;100852.78;11101109;26;891;-71
2024/04/12 23:33:14;;;;;;;;;;;;;;;18.70;49.92;100863.41;11100656;26;843;-71
2024/04/12 23:38:10;;;;;;;;;;;;;;;18.70;50.30;100866.06;11100240;26;962;-71
2024/04/12 23:43:06;;;;;;;;;;;;;;;18.70;50.02;100863.41;11100868;26;1829;-71
2024/04/12 23:48:01;;;;;;;;;;;;;;;18.71;49.82;100861.66;11100225;26;934;-71
2024/04/12 23:52:57;;;;;;;;;;;;;;;18.69;49.73;100850.28;11099963;26;922;-71
2024/04/12 23:57:53;;;;;;;;;;;;;;;18.69;49.79;100850.28;11099754;26;900;-71
